Impacts TAF Board
For situational awareness. Not to be used for flight planning purposes.
IDs:

KFMN - Farmington/Four Corn, NM, US

Issued at 2320 UTC 19 Sep 2020
Updated at 0207 UTC 20 Sep 2020
Potential Impact None Slight Moderate High
Time<<20/15Z 20/16Z 20/17Z 20/18Z 20/19Z 20/20Z 20/21Z 20/22Z 20/23Z 21/00Z 21/01Z 21/02Z 21/03Z>>
Type PRVL PRVL PRVL PRVL PRVL PRVL PRVL PRVL PRVL
VIS >6 >6 >6 >6 >6 >6 >6 >6 >6
CIG -- -- -- -- -- -- -- -- --
Cover SKC SKC SCT SCT SCT SCT SCT SCT SCT
FltCat VFR VFR VFR VFR VFR VFR VFR VFR VFR
WX -- -- -- -- -- -- -- -- --
WDir 110 110 VRB VRB VRB VRB VRB VRB VRB
WSpd 8 8 6 6 6 6 6 6 6
WGst -- -- -- -- -- -- -- -- --
Raw TAF
KFMN 192320Z 2000/2024 VRB06KT P6SM SCT130
  FM200800 11008KT P6SM SKC
  FM201700 VRB06KT P6SM SCT140


METAR Board
Radar Display
Forecast Discussion
For situational awareness. Not to be used for flight planning purposes.